sensor_id;sensor_type;location;lat;lon;timestamp;pressure;altitude;pressure_sealevel;temperature;humidity
43161;BME280;40968;52.342;5.528;2023-02-26T00:01:53;101967.81;;;2.56;57.30
43161;BME280;40968;52.342;5.528;2023-02-26T00:04:22;101960.94;;;2.49;57.90
43161;BME280;40968;52.342;5.528;2023-02-26T00:06:49;101911.66;;;2.03;58.42
43161;BME280;40968;52.342;5.528;2023-02-26T00:09:19;101956.09;;;2.27;58.40
43161;BME280;40968;52.342;5.528;2023-02-26T00:11:47;101956.38;;;2.15;58.15
43161;BME280;40968;52.342;5.528;2023-02-26T00:14:15;101901.66;;;1.75;58.61
43161;BME280;40968;52.342;5.528;2023-02-26T00:16:44;101985.31;;;2.21;59.04
43161;BME280;40968;52.342;5.528;2023-02-26T00:19:13;101960.41;;;1.89;59.07
43161;BME280;40968;52.342;5.528;2023-02-26T00:21:40;101865.53;;;1.31;59.51
43161;BME280;40968;52.342;5.528;2023-02-26T00:24:07;102005.97;;;2.04;59.49
43161;BME280;40968;52.342;5.528;2023-02-26T00:26:34;101970.47;;;1.72;59.77
43161;BME280;40968;52.342;5.528;2023-02-26T00:29:02;101973.19;;;1.67;59.86
43161;BME280;40968;52.342;5.528;2023-02-26T00:31:29;101963.53;;;1.64;60.39
43161;BME280;40968;52.342;5.528;2023-02-26T00:33:56;101970.69;;;1.59;60.49
43161;BME280;40968;52.342;5.528;2023-02-26T00:36:31;102020.50;;;1.79;60.41
43161;BME280;40968;52.342;5.528;2023-02-26T00:39:06;101968.41;;;1.39;60.77
43161;BME280;40968;52.342;5.528;2023-02-26T00:41:37;101903.00;;;1.04;60.71
43161;BME280;40968;52.342;5.528;2023-02-26T00:44:04;102014.66;;;1.63;61.07
43161;BME280;40968;52.342;5.528;2023-02-26T00:46:40;101983.44;;;1.36;61.42
43161;BME280;40968;52.342;5.528;2023-02-26T00:49:18;102036.66;;;1.65;61.55
43161;BME280;40968;52.342;5.528;2023-02-26T00:51:51;102034.03;;;1.62;61.63
43161;BME280;40968;52.342;5.528;2023-02-26T00:54:22;101984.47;;;1.27;62.04
43161;BME280;40968;52.342;5.528;2023-02-26T00:56:50;102041.09;;;1.62;61.74
43161;BME280;40968;52.342;5.528;2023-02-26T00:59:18;101996.63;;;1.37;61.78
43161;BME280;40968;52.342;5.528;2023-02-26T01:01:44;102036.78;;;1.58;61.72
43161;BME280;40968;52.342;5.528;2023-02-26T01:04:13;101999.38;;;1.29;61.44
43161;BME280;40968;52.342;5.528;2023-02-26T01:06:42;102044.78;;;1.53;61.22
43161;BME280;40968;52.342;5.528;2023-02-26T01:09:16;102046.53;;;1.54;61.21
43161;BME280;40968;52.342;5.528;2023-02-26T01:11:47;101932.34;;;0.87;61.05
43161;BME280;40968;52.342;5.528;2023-02-26T01:14:14;102041.34;;;1.48;60.62
43161;BME280;40968;52.342;5.528;2023-02-26T01:16:47;102015.19;;;1.32;60.26
43161;BME280;40968;52.342;5.528;2023-02-26T01:19:23;102048.38;;;1.49;60.51
43161;BME280;40968;52.342;5.528;2023-02-26T01:21:58;102024.81;;;1.37;59.81
43161;BME280;40968;52.342;5.528;2023-02-26T01:24:28;101954.22;;;0.93;59.50
43161;BME280;40968;52.342;5.528;2023-02-26T01:26:56;102056.25;;;1.51;60.18
43161;BME280;40968;52.342;5.528;2023-02-26T01:29:23;101991.72;;;1.15;60.03
43161;BME280;40968;52.342;5.528;2023-02-26T01:31:53;102010.94;;;1.24;59.94
43161;BME280;40968;52.342;5.528;2023-02-26T01:34:26;102059.84;;;1.46;59.91
43161;BME280;40968;52.342;5.528;2023-02-26T01:37:01;102016.28;;;1.19;59.94
43161;BME280;40968;52.342;5.528;2023-02-26T01:39:36;102043.47;;;1.27;60.09
43161;BME280;40968;52.342;5.528;2023-02-26T01:42:12;102062.63;;;1.39;59.72
43161;BME280;40968;52.342;5.528;2023-02-26T01:44:49;102040.94;;;1.20;59.52
43161;BME280;40968;52.342;5.528;2023-02-26T01:47:22;102067.94;;;1.37;58.75
43161;BME280;40968;52.342;5.528;2023-02-26T01:49:52;102016.63;;;0.97;58.54
43161;BME280;40968;52.342;5.528;2023-02-26T01:55:31;102077.72;;;1.30;57.70
43161;BME280;40968;52.342;5.528;2023-02-26T01:58:00;102071.59;;;1.28;58.00
43161;BME280;40968;52.342;5.528;2023-02-26T02:00:29;102078.72;;;1.25;57.00
43161;BME280;40968;52.342;5.528;2023-02-26T02:02:56;102053.41;;;1.10;56.83
43161;BME280;40968;52.342;5.528;2023-02-26T02:05:27;102074.53;;;1.11;57.03
43161;BME280;40968;52.342;5.528;2023-02-26T02:07:56;102082.34;;;1.16;57.02
43161;BME280;40968;52.342;5.528;2023-02-26T02:10:23;102073.72;;;1.05;57.17
43161;BME280;40968;52.342;5.528;2023-02-26T02:12:56;102032.84;;;0.71;57.44
43161;BME280;40968;52.342;5.528;2023-02-26T02:15:31;102077.34;;;0.97;57.58
43161;BME280;40968;52.342;5.528;2023-02-26T02:18:08;102103.63;;;1.07;57.64
43161;BME280;40968;52.342;5.528;2023-02-26T02:20:56;102110.69;;;1.05;57.65
43161;BME280;40968;52.342;5.528;2023-02-26T02:23:29;102064.44;;;0.76;57.59
43161;BME280;40968;52.342;5.528;2023-02-26T02:26:31;102113.38;;;1.02;57.73
43161;BME280;40968;52.342;5.528;2023-02-26T02:29:35;101999.97;;;0.30;57.78
43161;BME280;40968;52.342;5.528;2023-02-26T02:32:07;102122.25;;;0.96;57.99
43161;BME280;40968;52.342;5.528;2023-02-26T02:34:38;102125.81;;;0.93;57.71
43161;BME280;40968;52.342;5.528;2023-02-26T02:37:12;102083.22;;;0.54;57.81
43161;BME280;40968;52.342;5.528;2023-02-26T02:39:44;102129.44;;;0.85;58.71
43161;BME280;40968;52.342;5.528;2023-02-26T02:42:20;102128.59;;;0.81;58.51
43161;BME280;40968;52.342;5.528;2023-02-26T02:44:52;102010.78;;;0.10;58.66
43161;BME280;40968;52.342;5.528;2023-02-26T02:47:22;102133.91;;;0.79;59.18
43161;BME280;40968;52.342;5.528;2023-02-26T02:49:53;102110.31;;;0.65;58.78
43161;BME280;40968;52.342;5.528;2023-02-26T02:52:24;101982.91;;;-0.14;58.47
43161;BME280;40968;52.342;5.528;2023-02-26T02:54:56;102104.38;;;0.48;58.96
43161;BME280;40968;52.342;5.528;2023-02-26T02:57:27;102142.84;;;0.68;58.93
43161;BME280;40968;52.342;5.528;2023-02-26T02:59:57;102149.03;;;0.65;59.49
43161;BME280;40968;52.342;5.528;2023-02-26T03:02:32;102108.00;;;0.38;59.17
43161;BME280;40968;52.342;5.528;2023-02-26T03:05:01;102150.91;;;0.55;59.03
43161;BME280;40968;52.342;5.528;2023-02-26T03:07:29;102157.13;;;0.49;59.72
43161;BME280;40968;52.342;5.528;2023-02-26T03:09:57;102088.13;;;0.07;59.51
43161;BME280;40968;52.342;5.528;2023-02-26T03:12:25;102151.03;;;0.46;59.56
43161;BME280;40968;52.342;5.528;2023-02-26T03:14:52;102158.94;;;0.46;59.78
43161;BME280;40968;52.342;5.528;2023-02-26T03:17:28;102104.72;;;0.17;59.32
43161;BME280;40968;52.342;5.528;2023-02-26T03:20:11;102132.75;;;0.27;59.25
43161;BME280;40968;52.342;5.528;2023-02-26T03:22:45;102012.25;;;-0.47;59.30
43161;BME280;40968;52.342;5.528;2023-02-26T03:25:17;102168.66;;;0.41;59.35
43161;BME280;40968;52.342;5.528;2023-02-26T03:27:52;102121.47;;;0.13;59.72
43161;BME280;40968;52.342;5.528;2023-02-26T03:30:25;102004.47;;;-0.61;59.31
43161;BME280;40968;52.342;5.528;2023-02-26T03:33:02;102041.19;;;-0.42;58.88
43161;BME280;40968;52.342;5.528;2023-02-26T03:35:34;102086.63;;;-0.19;59.37
43161;BME280;40968;52.342;5.528;2023-02-26T03:38:05;102095.38;;;-0.13;59.06
43161;BME280;40968;52.342;5.528;2023-02-26T03:40:37;102112.91;;;-0.08;59.09
43161;BME280;40968;52.342;5.528;2023-02-26T03:43:07;102112.94;;;-0.14;59.03
43161;BME280;40968;52.342;5.528;2023-02-26T03:45:37;102189.03;;;0.26;59.38
43161;BME280;40968;52.342;5.528;2023-02-26T03:48:08;102155.00;;;0.00;59.31
43161;BME280;40968;52.342;5.528;2023-02-26T03:50:41;102164.56;;;0.09;59.27
43161;BME280;40968;52.342;5.528;2023-02-26T03:53:12;102190.84;;;0.21;59.46
43161;BME280;40968;52.342;5.528;2023-02-26T03:55:44;102199.63;;;0.17;59.54
43161;BME280;40968;52.342;5.528;2023-02-26T03:58:11;102197.91;;;0.16;59.60
43161;BME280;40968;52.342;5.528;2023-02-26T04:00:41;102198.00;;;0.07;59.35
43161;BME280;40968;52.342;5.528;2023-02-26T04:03:14;102169.09;;;-0.06;59.65
43161;BME280;40968;52.342;5.528;2023-02-26T04:05:49;102054.69;;;-0.81;59.59
43161;BME280;40968;52.342;5.528;2023-02-26T04:08:17;102157.78;;;-0.20;59.97
43161;BME280;40968;52.342;5.528;2023-02-26T04:10:47;102169.16;;;-0.13;60.13
43161;BME280;40968;52.342;5.528;2023-02-26T04:13:17;102222.56;;;0.12;60.60
43161;BME280;40968;52.342;5.528;2023-02-26T04:15:43;102136.91;;;-0.42;60.11
43161;BME280;40968;52.342;5.528;2023-02-26T04:18:11;102173.63;;;-0.23;60.05
43161;BME280;40968;52.342;5.528;2023-02-26T04:20:38;102221.72;;;0.05;60.47
43161;BME280;40968;52.342;5.528;2023-02-26T04:23:04;102228.78;;;0.03;60.04
43161;BME280;40968;52.342;5.528;2023-02-26T04:25:31;102110.75;;;-0.67;60.68
43161;BME280;40968;52.342;5.528;2023-02-26T04:27:58;102228.78;;;0.02;60.70
43161;BME280;40968;52.342;5.528;2023-02-26T04:30:24;102206.09;;;-0.18;60.29
43161;BME280;40968;52.342;5.528;2023-02-26T04:32:51;102240.25;;;-0.04;60.10
43161;BME280;40968;52.342;5.528;2023-02-26T04:35:19;102212.28;;;-0.22;60.30
43161;BME280;40968;52.342;5.528;2023-02-26T04:37:46;102204.41;;;-0.31;60.73
43161;BME280;40968;52.342;5.528;2023-02-26T04:40:13;102211.44;;;-0.30;60.48
43161;BME280;40968;52.342;5.528;2023-02-26T04:42:40;102199.19;;;-0.36;60.45
43161;BME280;40968;52.342;5.528;2023-02-26T04:45:07;102245.59;;;-0.10;60.56
43161;BME280;40968;52.342;5.528;2023-02-26T04:47:34;102180.84;;;-0.48;60.31
43161;BME280;40968;52.342;5.528;2023-02-26T04:50:01;102228.13;;;-0.31;60.39
43161;BME280;40968;52.342;5.528;2023-02-26T04:52:29;102163.44;;;-0.73;59.93
43161;BME280;40968;52.342;5.528;2023-02-26T04:54:56;102257.06;;;-0.21;59.63
43161;BME280;40968;52.342;5.528;2023-02-26T04:57:22;102174.88;;;-0.80;59.66
43161;BME280;40968;52.342;5.528;2023-02-26T04:59:49;102246.66;;;-0.42;59.41
43161;BME280;40968;52.342;5.528;2023-02-26T05:02:15;102199.41;;;-0.75;59.77
43161;BME280;40968;52.342;5.528;2023-02-26T05:04:43;102275.56;;;-0.31;59.58
43161;BME280;40968;52.342;5.528;2023-02-26T05:07:10;102258.94;;;-0.46;59.98
43161;BME280;40968;52.342;5.528;2023-02-26T05:09:38;102184.56;;;-0.85;59.94
43161;BME280;40968;52.342;5.528;2023-02-26T05:12:05;102284.38;;;-0.32;60.07
43161;BME280;40968;52.342;5.528;2023-02-26T05:14:31;102285.25;;;-0.35;60.12
43161;BME280;40968;52.342;5.528;2023-02-26T05:16:58;102142.63;;;-1.19;59.95
43161;BME280;40968;52.342;5.528;2023-02-26T05:19:25;102279.16;;;-0.45;60.46
43161;BME280;40968;52.342;5.528;2023-02-26T05:21:51;102262.53;;;-0.56;60.54
43161;BME280;40968;52.342;5.528;2023-02-26T05:24:18;102254.66;;;-0.62;60.40
43161;BME280;40968;52.342;5.528;2023-02-26T05:26:46;102232.78;;;-0.80;60.45
43161;BME280;40968;52.342;5.528;2023-02-26T05:29:13;102270.44;;;-0.59;60.68
43161;BME280;40968;52.342;5.528;2023-02-26T05:31:39;102303.72;;;-0.46;60.85
43161;BME280;40968;52.342;5.528;2023-02-26T05:34:07;102308.13;;;-0.46;60.79
43161;BME280;40968;52.342;5.528;2023-02-26T05:36:33;102304.66;;;-0.48;60.80
43161;BME280;40968;52.342;5.528;2023-02-26T05:39:00;102246.91;;;-0.90;61.40
43161;BME280;40968;52.342;5.528;2023-02-26T05:41:27;102314.31;;;-0.51;61.24
43161;BME280;40968;52.342;5.528;2023-02-26T05:43:55;102316.06;;;-0.53;61.55
43161;BME280;40968;52.342;5.528;2023-02-26T05:46:21;102161.13;;;-1.48;61.31
43161;BME280;40968;52.342;5.528;2023-02-26T05:48:48;102329.22;;;-0.53;61.40
43161;BME280;40968;52.342;5.528;2023-02-26T05:51:14;102316.09;;;-0.62;61.54
43161;BME280;40968;52.342;5.528;2023-02-26T05:53:41;102329.25;;;-0.56;61.79
43161;BME280;40968;52.342;5.528;2023-02-26T05:56:08;102274.09;;;-0.97;61.75
43161;BME280;40968;52.342;5.528;2023-02-26T05:58:34;102351.22;;;-0.58;61.59
43161;BME280;40968;52.342;5.528;2023-02-26T06:01:02;102353.84;;;-0.60;61.92
43161;BME280;40968;52.342;5.528;2023-02-26T06:03:29;102292.56;;;-1.02;62.08
43161;BME280;40968;52.342;5.528;2023-02-26T06:05:55;102331.13;;;-0.82;62.28
43161;BME280;40968;52.342;5.528;2023-02-26T06:08:22;102294.34;;;-1.13;62.41
43161;BME280;40968;52.342;5.528;2023-02-26T06:10:49;102372.31;;;-0.72;62.50
43161;BME280;40968;52.342;5.528;2023-02-26T06:13:16;102168.22;;;-1.95;62.94
43161;BME280;40968;52.342;5.528;2023-02-26T06:15:43;102374.97;;;-0.75;62.65
43161;BME280;40968;52.342;5.528;2023-02-26T06:18:11;102343.44;;;-0.97;63.10
43161;BME280;40968;52.342;5.528;2023-02-26T06:20:37;102392.53;;;-0.76;63.16
43161;BME280;40968;52.342;5.528;2023-02-26T06:23:04;102205.91;;;-1.87;62.92
43161;BME280;40968;52.342;5.528;2023-02-26T06:25:30;102240.06;;;-1.67;62.82
43161;BME280;40968;52.342;5.528;2023-02-26T06:27:57;102396.03;;;-0.77;63.01
43161;BME280;40968;52.342;5.528;2023-02-26T06:30:23;102346.97;;;-1.07;63.13
43161;BME280;40968;52.342;5.528;2023-02-26T06:32:50;102403.03;;;-0.79;63.55
43161;BME280;40968;52.342;5.528;2023-02-26T06:35:18;102406.56;;;-0.78;63.75
43161;BME280;40968;52.342;5.528;2023-02-26T06:37:45;102319.78;;;-1.29;63.68
43161;BME280;40968;52.342;5.528;2023-02-26T06:40:12;102408.31;;;-0.82;63.74
43161;BME280;40968;52.342;5.528;2023-02-26T06:42:38;102333.81;;;-1.30;63.79
43161;BME280;40968;52.342;5.528;2023-02-26T06:45:06;102417.09;;;-0.81;63.92
43161;BME280;40968;52.342;5.528;2023-02-26T06:47:32;102353.09;;;-1.31;63.81
43161;BME280;40968;52.342;5.528;2023-02-26T06:49:59;102411.00;;;-1.02;63.86
43161;BME280;40968;52.342;5.528;2023-02-26T06:52:28;102343.47;;;-1.36;64.03
43161;BME280;40968;52.342;5.528;2023-02-26T06:54:55;102416.25;;;-0.97;63.88
43161;BME280;40968;52.342;5.528;2023-02-26T06:57:21;102431.13;;;-0.86;63.92
43161;BME280;40968;52.342;5.528;2023-02-26T06:59:48;102402.19;;;-1.09;64.10
43161;BME280;40968;52.342;5.528;2023-02-26T07:02:16;102454.81;;;-0.84;63.58
43161;BME280;40968;52.342;5.528;2023-02-26T07:04:43;102462.75;;;-0.82;63.96
43161;BME280;40968;52.342;5.528;2023-02-26T07:07:10;102460.13;;;-0.82;64.02
43161;BME280;40968;52.342;5.528;2023-02-26T07:09:38;102460.09;;;-0.81;63.78
43161;BME280;40968;52.342;5.528;2023-02-26T07:12:05;102470.66;;;-0.81;64.06
43161;BME280;40968;52.342;5.528;2023-02-26T07:14:32;102428.53;;;-1.03;64.10
43161;BME280;40968;52.342;5.528;2023-02-26T07:16:59;102378.53;;;-1.26;64.03
43161;BME280;40968;52.342;5.528;2023-02-26T07:19:26;102311.03;;;-1.72;64.04
43161;BME280;40968;52.342;5.528;2023-02-26T07:21:55;102430.28;;;-1.05;64.04
43161;BME280;40968;52.342;5.528;2023-02-26T07:24:22;102482.03;;;-0.71;63.78
43161;BME280;40968;52.342;5.528;2023-02-26T07:26:51;102482.91;;;-0.68;64.11
43161;BME280;40968;52.342;5.528;2023-02-26T07:29:18;102489.94;;;-0.65;63.86
43161;BME280;40968;52.342;5.528;2023-02-26T07:31:45;102489.91;;;-0.60;64.08
43161;BME280;40968;52.342;5.528;2023-02-26T07:34:11;102463.63;;;-0.76;63.40
43161;BME280;40968;52.342;5.528;2023-02-26T07:36:39;102496.06;;;-0.54;63.56
43161;BME280;40968;52.342;5.528;2023-02-26T07:39:05;102425.88;;;-0.95;63.46
43161;BME280;40968;52.342;5.528;2023-02-26T07:41:32;102415.38;;;-0.99;63.42
43161;BME280;40968;52.342;5.528;2023-02-26T07:44:00;102327.72;;;-1.48;63.65
43161;BME280;40968;52.342;5.528;2023-02-26T07:46:26;102516.22;;;-0.43;63.25
43161;BME280;40968;52.342;5.528;2023-02-26T07:48:53;102505.69;;;-0.39;63.61
43161;BME280;40968;52.342;5.528;2023-02-26T07:51:20;102419.72;;;-0.89;63.14
43161;BME280;40968;52.342;5.528;2023-02-26T07:53:46;102467.06;;;-0.55;63.63
43161;BME280;40968;52.342;5.528;2023-02-26T07:56:13;102482.84;;;-0.40;63.13
43161;BME280;40968;52.342;5.528;2023-02-26T07:58:39;102512.69;;;-0.22;63.31
43161;BME280;40968;52.342;5.528;2023-02-26T08:01:07;102514.44;;;-0.18;63.24
43161;BME280;40968;52.342;5.528;2023-02-26T08:03:34;102519.69;;;-0.15;63.27
43161;BME280;40968;52.342;5.528;2023-02-26T08:06:00;102458.31;;;-0.48;63.37
43161;BME280;40968;52.342;5.528;2023-02-26T08:08:27;102363.59;;;-0.99;62.38
43161;BME280;40968;52.342;5.528;2023-02-26T08:10:54;102487.22;;;-0.25;62.85
43161;BME280;40968;52.342;5.528;2023-02-26T08:13:21;102527.53;;;0.04;62.53
43161;BME280;40968;52.342;5.528;2023-02-26T08:15:47;102494.22;;;-0.16;62.28
43161;BME280;40968;52.342;5.528;2023-02-26T08:18:15;102531.03;;;0.15;61.68
43161;BME280;40968;52.342;5.528;2023-02-26T08:20:42;102520.50;;;0.12;60.98
43161;BME280;40968;52.342;5.528;2023-02-26T08:23:08;102540.66;;;0.25;61.08
43161;BME280;40968;52.342;5.528;2023-02-26T08:25:35;102427.53;;;-0.38;60.70
43161;BME280;40968;52.342;5.528;2023-02-26T08:28:01;102539.72;;;0.39;59.63
43161;BME280;40968;52.342;5.528;2023-02-26T08:30:28;102537.06;;;0.45;60.14
43161;BME280;40968;52.342;5.528;2023-02-26T08:32:55;102479.22;;;0.05;58.74
43161;BME280;40968;52.342;5.528;2023-02-26T08:35:23;102447.56;;;0.05;58.34
43161;BME280;40968;52.342;5.528;2023-02-26T08:37:50;102555.41;;;0.68;57.47
43161;BME280;40968;52.342;5.528;2023-02-26T08:40:17;102556.25;;;0.73;57.83
43161;BME280;40968;52.342;5.528;2023-02-26T08:42:44;102430.03;;;0.01;57.97
43161;BME280;40968;52.342;5.528;2023-02-26T08:45:10;102562.38;;;0.81;57.88
43161;BME280;40968;52.342;5.528;2023-02-26T08:47:37;102564.97;;;0.86;57.76
43161;BME280;40968;52.342;5.528;2023-02-26T08:50:06;102569.34;;;0.90;57.20
43161;BME280;40968;52.342;5.528;2023-02-26T08:52:34;102512.34;;;0.64;57.78
43161;BME280;40968;52.342;5.528;2023-02-26T08:55:01;102577.22;;;0.99;56.79
43161;BME280;40968;52.342;5.528;2023-02-26T08:57:27;102583.34;;;1.05;56.06
43161;BME280;40968;52.342;5.528;2023-02-26T08:59:54;102573.72;;;0.97;57.42
43161;BME280;40968;52.342;5.528;2023-02-26T09:02:20;102576.38;;;0.97;57.46
43161;BME280;40968;52.342;5.528;2023-02-26T09:04:47;102599.97;;;1.19;57.38
43161;BME280;40968;52.342;5.528;2023-02-26T09:07:13;102601.72;;;1.23;57.30
43161;BME280;40968;52.342;5.528;2023-02-26T09:09:41;102542.06;;;0.91;56.83
43161;BME280;40968;52.342;5.528;2023-02-26T09:12:08;102604.28;;;1.34;57.06
43161;BME280;40968;52.342;5.528;2023-02-26T09:14:34;102584.09;;;1.25;57.70
43161;BME280;40968;52.342;5.528;2023-02-26T09:17:01;102531.50;;;0.94;56.36
43161;BME280;40968;52.342;5.528;2023-02-26T09:19:28;102620.88;;;1.52;56.51
43161;BME280;40968;52.342;5.528;2023-02-26T09:21:54;102613.78;;;1.58;57.42
43161;BME280;40968;52.342;5.528;2023-02-26T09:24:21;102596.22;;;1.51;56.40
43161;BME280;40968;52.342;5.528;2023-02-26T09:26:49;102533.00;;;1.26;56.55
43161;BME280;40968;52.342;5.528;2023-02-26T09:29:15;102476.03;;;0.96;55.59
43161;BME280;40968;52.342;5.528;2023-02-26T09:31:42;102517.22;;;1.20;55.50
43161;BME280;40968;52.342;5.528;2023-02-26T09:34:09;102621.44;;;1.91;56.14
43161;BME280;40968;52.342;5.528;2023-02-26T09:36:36;102420.81;;;0.70;56.52
43161;BME280;40968;52.342;5.528;2023-02-26T09:39:05;102632.72;;;2.07;56.61
43161;BME280;40968;52.342;5.528;2023-02-26T09:41:35;102622.16;;;2.07;55.98
43161;BME280;40968;52.342;5.528;2023-02-26T09:44:12;102636.16;;;2.18;55.29
43161;BME280;40968;52.342;5.528;2023-02-26T09:46:49;102580.91;;;1.89;55.27
43161;BME280;40968;52.342;5.528;2023-02-26T09:49:23;102550.16;;;1.77;55.69
43161;BME280;40968;52.342;5.528;2023-02-26T09:51:57;102638.66;;;2.32;56.25
43161;BME280;40968;52.342;5.528;2023-02-26T09:54:27;102642.09;;;2.40;56.34
43161;BME280;40968;52.342;5.528;2023-02-26T09:56:58;102621.91;;;2.30;56.59
43161;BME280;40968;52.342;5.528;2023-02-26T09:59:30;102634.16;;;2.39;56.02
43161;BME280;40968;52.342;5.528;2023-02-26T10:02:01;102627.06;;;2.44;55.63
43161;BME280;40968;52.342;5.528;2023-02-26T10:04:46;102652.41;;;2.65;56.03
43161;BME280;40968;52.342;5.528;2023-02-26T10:07:22;102653.19;;;2.72;55.86
43161;BME280;40968;52.342;5.528;2023-02-26T10:10:02;102655.78;;;2.78;54.71
43161;BME280;40968;52.342;5.528;2023-02-26T10:12:33;102476.25;;;1.69;55.02
43161;BME280;40968;52.342;5.528;2023-02-26T10:15:07;102656.59;;;2.81;54.69
43161;BME280;40968;52.342;5.528;2023-02-26T10:17:41;102640.78;;;2.77;54.90
43161;BME280;40968;52.342;5.528;2023-02-26T10:20:17;102651.16;;;2.92;54.72
43161;BME280;40968;52.342;5.528;2023-02-26T10:22:54;102612.66;;;2.67;52.68
43161;BME280;40968;52.342;5.528;2023-02-26T10:25:24;102673.06;;;3.07;53.53
43161;BME280;40968;52.342;5.528;2023-02-26T10:27:58;102676.50;;;3.13;53.87
43161;BME280;40968;52.342;5.528;2023-02-26T10:30:33;102679.13;;;3.15;51.87
43161;BME280;40968;52.342;5.528;2023-02-26T10:33:07;102682.63;;;3.17;51.48
43161;BME280;40968;52.342;5.528;2023-02-26T10:35:41;102621.25;;;2.86;51.91
43161;BME280;40968;52.342;5.528;2023-02-26T10:38:13;102687.00;;;3.18;51.23
43161;BME280;40968;52.342;5.528;2023-02-26T10:40:45;102646.72;;;2.94;51.75
43161;BME280;40968;52.342;5.528;2023-02-26T10:43:17;102675.53;;;3.19;51.74
43161;BME280;40968;52.342;5.528;2023-02-26T10:45:56;102693.91;;;3.30;51.15
43161;BME280;40968;52.342;5.528;2023-02-26T10:48:37;102657.91;;;3.15;51.61
43161;BME280;40968;52.342;5.528;2023-02-26T10:51:12;102698.13;;;3.46;51.68
43161;BME280;40968;52.342;5.528;2023-02-26T10:53:42;102694.47;;;3.55;50.87
43161;BME280;40968;52.342;5.528;2023-02-26T10:56:15;102668.09;;;3.46;50.68
43161;BME280;40968;52.342;5.528;2023-02-26T10:58:42;102702.13;;;3.74;50.17
43161;BME280;40968;52.342;5.528;2023-02-26T11:01:16;102699.31;;;3.83;51.18
43161;BME280;40968;52.342;5.528;2023-02-26T11:03:45;102696.63;;;3.85;49.75
43161;BME280;40968;52.342;5.528;2023-02-26T11:06:17;102578.22;;;3.27;48.78
43161;BME280;40968;52.342;5.528;2023-02-26T11:08:48;102702.47;;;4.07;49.56
43161;BME280;40968;52.342;5.528;2023-02-26T11:11:35;102699.66;;;4.16;48.86
43161;BME280;40968;52.342;5.528;2023-02-26T11:14:02;102697.69;;;4.27;49.25
43161;BME280;40968;52.342;5.528;2023-02-26T11:16:31;102705.75;;;4.21;47.89
43161;BME280;40968;52.342;5.528;2023-02-26T11:18:59;102698.50;;;4.29;48.67
43161;BME280;40968;52.342;5.528;2023-02-26T11:21:28;102702.97;;;4.29;48.11
43161;BME280;40968;52.342;5.528;2023-02-26T11:23:58;102707.09;;;4.44;48.06
43161;BME280;40968;52.342;5.528;2023-02-26T11:26:31;102714.09;;;4.48;49.18
43161;BME280;40968;52.342;5.528;2023-02-26T11:28:59;102538.00;;;3.57;49.50
43161;BME280;40968;52.342;5.528;2023-02-26T11:31:26;102708.28;;;4.76;48.80
43161;BME280;40968;52.342;5.528;2023-02-26T11:33:58;102678.19;;;4.74;48.23
43161;BME280;40968;52.342;5.528;2023-02-26T11:36:29;102683.47;;;4.77;48.87
43161;BME280;40968;52.342;5.528;2023-02-26T11:39:00;102638.50;;;4.66;48.56
43161;BME280;40968;52.342;5.528;2023-02-26T11:41:28;102697.94;;;5.06;47.68
43161;BME280;40968;52.342;5.528;2023-02-26T11:44:00;102656.13;;;4.70;48.37
43161;BME280;40968;52.342;5.528;2023-02-26T11:46:27;102704.38;;;4.92;47.31
43161;BME280;40968;52.342;5.528;2023-02-26T11:48:59;102704.56;;;4.83;47.56
43161;BME280;40968;52.342;5.528;2023-02-26T11:51:27;102661.31;;;4.32;48.19
43161;BME280;40968;52.342;5.528;2023-02-26T11:53:56;102707.53;;;4.69;48.47
43161;BME280;40968;52.342;5.528;2023-02-26T11:56:28;102700.19;;;4.80;48.02
43161;BME280;40968;52.342;5.528;2023-02-26T11:58:59;102699.56;;;4.68;48.10
43161;BME280;40968;52.342;5.528;2023-02-26T12:01:28;102688.44;;;4.48;47.42
43161;BME280;40968;52.342;5.528;2023-02-26T12:03:59;102605.44;;;3.90;47.38
43161;BME280;40968;52.342;5.528;2023-02-26T12:06:27;102706.63;;;4.69;47.82
43161;BME280;40968;52.342;5.528;2023-02-26T12:08:54;102590.72;;;4.22;47.87
43161;BME280;40968;52.342;5.528;2023-02-26T12:14:47;102682.25;;;5.32;47.12
43161;BME280;40968;52.342;5.528;2023-02-26T12:17:34;102691.44;;;5.58;46.55
43161;BME280;40968;52.342;5.528;2023-02-26T12:20:16;102694.31;;;5.85;45.95
43161;BME280;40968;52.342;5.528;2023-02-26T12:22:50;102657.16;;;5.82;46.05
43161;BME280;40968;52.342;5.528;2023-02-26T12:25:48;102698.66;;;6.25;45.05
43161;BME280;40968;52.342;5.528;2023-02-26T12:28:33;102689.31;;;6.42;45.05
43161;BME280;40968;52.342;5.528;2023-02-26T12:31:17;102687.34;;;6.50;44.48
43161;BME280;40968;52.342;5.528;2023-02-26T12:33:54;102666.81;;;6.22;43.76
43161;BME280;40968;52.342;5.528;2023-02-26T12:36:42;102670.47;;;5.82;43.87
43161;BME280;40968;52.342;5.528;2023-02-26T12:39:31;102688.22;;;5.80;43.05
43161;BME280;40968;52.342;5.528;2023-02-26T12:42:12;102687.00;;;5.93;43.95
43161;BME280;40968;52.342;5.528;2023-02-26T12:45:05;102642.19;;;5.78;44.15
43161;BME280;40968;52.342;5.528;2023-02-26T12:47:44;102669.28;;;5.94;43.75
43161;BME280;40968;52.342;5.528;2023-02-26T12:50:23;102684.22;;;6.00;43.20
43161;BME280;40968;52.342;5.528;2023-02-26T12:53:04;102683.94;;;6.12;43.04
43161;BME280;40968;52.342;5.528;2023-02-26T12:55:39;102690.53;;;6.32;43.19
43161;BME280;40968;52.342;5.528;2023-02-26T12:58:52;102692.63;;;6.52;42.43
43161;BME280;40968;52.342;5.528;2023-02-26T13:01:40;102674.56;;;6.63;41.88
43161;BME280;40968;52.342;5.528;2023-02-26T13:04:54;102648.63;;;6.70;42.58
43161;BME280;40968;52.342;5.528;2023-02-26T13:07:27;102690.16;;;7.07;41.94
43161;BME280;40968;52.342;5.528;2023-02-26T13:10:02;102646.94;;;6.95;40.51
43161;BME280;40968;52.342;5.528;2023-02-26T13:12:41;102686.31;;;7.17;40.49
43161;BME280;40968;52.342;5.528;2023-02-26T13:15:31;102677.97;;;7.28;40.48
43161;BME280;40968;52.342;5.528;2023-02-26T13:18:05;102668.19;;;7.28;40.65
43161;BME280;40968;52.342;5.528;2023-02-26T13:20:36;102678.94;;;7.25;39.72
43161;BME280;40968;52.342;5.528;2023-02-26T13:23:09;102643.81;;;7.11;40.70